Pays
Station

 

Conditions  météo  pour  Erie, Erie International Airport  -  Etats-Unis    Etats-Unis

  
-1 °C
    
 
 

METAR pour Erie, Erie International Airport :

KERI 142251Z 18005KT 10SM OVC037 M01/M07 A3053 RMK AO2 SLP348 T10061072

 

Voici le bulletin pour Erie, Erie International Airport - Etats-Unis.
 
Le bulletin a été fait il y a 56 minutes, à 22:51 UTC .
Le vent soufflait à la vitesse de 2.6 mètres par seconde de Sud (180°).
 
La température était de -1 °C, avec un point de rosée à -7 °C.
La température ressentie était de -4 °C.
 
La pression atmosphérique était de 1034 hPa.
L'humidité relative était de 63.6%.
 
Le ciel était nuageux à partir d'une hauteur de 1128 mètres
 
La visibilité globale était de 16.1 kilomètres.
 

 
 
 

Pays :   A   B   C   D   E   F   G   H   I   J   K   L   M   N   O   P   Q   R   S   T   U   V   W   Y   Z

 

Partenaires :  Info Météo avec Met'info
Météo Marine avec MeteoMarine.net
Infos Site  |  Infos Légales  |  Crédits  |  Confidentialité
Contactez-nous  |  Ajouter aux favoris
© 2013-2018 METAR - Tous droits réservés